sensor_id;sensor_type;location;lat;lon;timestamp;pressure;altitude;pressure_sealevel;temperature;humidity
2761;BME280;15420;48.636;9.798;2022-11-15T00:00:56;96521.91;;;12.64;87.99
2761;BME280;15420;48.636;9.798;2022-11-15T00:03:28;96520.22;;;12.66;87.90
2761;BME280;15420;48.636;9.798;2022-11-15T00:06:02;96511.59;;;12.65;88.62
2761;BME280;15420;48.636;9.798;2022-11-15T00:08:32;96518.44;;;12.62;87.72
2761;BME280;15420;48.636;9.798;2022-11-15T00:11:00;96507.25;;;12.63;88.76
2761;BME280;15420;48.636;9.798;2022-11-15T00:13:29;96508.94;;;12.59;88.76
2761;BME280;15420;48.636;9.798;2022-11-15T00:16:00;96512.41;;;12.60;88.67
2761;BME280;15420;48.636;9.798;2022-11-15T00:18:30;96510.69;;;12.60;88.54
2761;BME280;15420;48.636;9.798;2022-11-15T00:21:02;96514.97;;;12.58;89.87
2761;BME280;15420;48.636;9.798;2022-11-15T00:23:29;96508.06;;;12.57;89.90
2761;BME280;15420;48.636;9.798;2022-11-15T00:25:59;96507.19;;;12.57;89.86
2761;BME280;15420;48.636;9.798;2022-11-15T00:28:28;96501.16;;;12.55;89.50
2761;BME280;15420;48.636;9.798;2022-11-15T00:31:00;96505.44;;;12.53;89.79
2761;BME280;15420;48.636;9.798;2022-11-15T00:33:27;96504.56;;;12.51;89.10
2761;BME280;15420;48.636;9.798;2022-11-15T00:35:53;96503.69;;;12.50;90.55
2761;BME280;15420;48.636;9.798;2022-11-15T00:38:19;96505.41;;;12.50;90.86
2761;BME280;15420;48.636;9.798;2022-11-15T00:40:47;96499.41;;;12.48;90.52
2761;BME280;15420;48.636;9.798;2022-11-15T00:43:13;96496.81;;;12.48;90.43
2761;BME280;15420;48.636;9.798;2022-11-15T00:45:42;96501.09;;;12.46;89.90
2761;BME280;15420;48.636;9.798;2022-11-15T00:48:09;96500.25;;;12.45;90.14
2761;BME280;15420;48.636;9.798;2022-11-15T00:50:37;96498.50;;;12.44;90.15
2761;BME280;15420;48.636;9.798;2022-11-15T00:53:06;96498.50;;;12.44;90.65
2761;BME280;15420;48.636;9.798;2022-11-15T00:55:32;96490.75;;;12.42;89.96
2761;BME280;15420;48.636;9.798;2022-11-15T00:57:58;96492.47;;;12.42;91.26
2761;BME280;15420;48.636;9.798;2022-11-15T01:00:24;96491.59;;;12.40;91.32
2761;BME280;15420;48.636;9.798;2022-11-15T01:02:55;96482.94;;;12.38;89.76
2761;BME280;15420;48.636;9.798;2022-11-15T01:05:22;96481.22;;;12.37;91.23
2761;BME280;15420;48.636;9.798;2022-11-15T01:07:52;96477.75;;;12.35;90.51
2761;BME280;15420;48.636;9.798;2022-11-15T01:10:23;96476.91;;;12.34;90.38
2761;BME280;15420;48.636;9.798;2022-11-15T01:12:50;96476.88;;;12.33;91.56
2761;BME280;15420;48.636;9.798;2022-11-15T01:15:16;96469.13;;;12.33;91.39
2761;BME280;15420;48.636;9.798;2022-11-15T01:17:42;96471.72;;;12.33;90.38
2761;BME280;15420;48.636;9.798;2022-11-15T01:20:09;96469.09;;;12.28;91.12
2761;BME280;15420;48.636;9.798;2022-11-15T01:22:35;96462.19;;;12.27;91.24
2761;BME280;15420;48.636;9.798;2022-11-15T01:25:04;96458.72;;;12.25;90.43
2761;BME280;15420;48.636;9.798;2022-11-15T01:27:32;96457.84;;;12.23;90.80
2761;BME280;15420;48.636;9.798;2022-11-15T01:29:58;96461.22;;;12.16;90.63
2761;BME280;15420;48.636;9.798;2022-11-15T01:32:24;96450.84;;;12.13;90.38
2761;BME280;15420;48.636;9.798;2022-11-15T01:34:53;96454.28;;;12.10;91.13
2761;BME280;15420;48.636;9.798;2022-11-15T01:37:21;96448.22;;;12.08;91.24
2761;BME280;15420;48.636;9.798;2022-11-15T01:39:49;96445.59;;;12.04;90.58
2761;BME280;15420;48.636;9.798;2022-11-15T01:42:15;96449.00;;;12.00;91.83
2761;BME280;15420;48.636;9.798;2022-11-15T01:44:51;96449.00;;;11.98;90.52
2761;BME280;15420;48.636;9.798;2022-11-15T01:47:39;96442.88;;;11.90;90.46
2761;BME280;15420;48.636;9.798;2022-11-15T01:50:12;96441.13;;;11.86;90.89
2761;BME280;15420;48.636;9.798;2022-11-15T01:52:42;96452.25;;;11.81;90.65
2761;BME280;15420;48.636;9.798;2022-11-15T01:55:16;96442.72;;;11.76;90.91
2761;BME280;15420;48.636;9.798;2022-11-15T01:57:45;96437.47;;;11.70;91.33
2761;BME280;15420;48.636;9.798;2022-11-15T02:00:13;96445.13;;;11.63;91.55
2761;BME280;15420;48.636;9.798;2022-11-15T02:02:40;96438.19;;;11.57;91.82
2761;BME280;15420;48.636;9.798;2022-11-15T02:05:08;96432.97;;;11.51;91.82
2761;BME280;15420;48.636;9.798;2022-11-15T02:07:37;96438.09;;;11.48;90.88
2761;BME280;15420;48.636;9.798;2022-11-15T02:10:17;96432.03;;;11.43;91.91
2761;BME280;15420;48.636;9.798;2022-11-15T02:12:47;96426.81;;;11.38;91.38
2761;BME280;15420;48.636;9.798;2022-11-15T02:15:14;96420.75;;;11.35;91.39
2761;BME280;15420;48.636;9.798;2022-11-15T02:20:26;96414.66;;;11.27;92.17
2761;BME280;15420;48.636;9.798;2022-11-15T02:23:28;96413.72;;;11.22;92.28
2761;BME280;15420;48.636;9.798;2022-11-15T02:34:25;96395.47;;;11.06;93.40
2761;BME280;15420;48.636;9.798;2022-11-15T02:39:36;96404.88;;;11.03;92.99
2761;BME280;15420;48.636;9.798;2022-11-15T02:42:38;96398.88;;;11.02;93.59
2761;BME280;15420;48.636;9.798;2022-11-15T02:45:37;96391.97;;;11.00;92.92
2761;BME280;15420;48.636;9.798;2022-11-15T02:48:06;96393.69;;;10.99;93.20
2761;BME280;15420;48.636;9.798;2022-11-15T02:50:33;96385.91;;;10.96;93.51
2761;BME280;15420;48.636;9.798;2022-11-15T02:53:00;96384.16;;;10.95;93.61
2761;BME280;15420;48.636;9.798;2022-11-15T02:55:48;96381.56;;;10.94;92.96
2761;BME280;15420;48.636;9.798;2022-11-15T03:06:39;96372.75;;;10.76;93.96
2761;BME280;15420;48.636;9.798;2022-11-15T03:12:10;96375.31;;;10.75;94.23
2761;BME280;15420;48.636;9.798;2022-11-15T03:14:47;96362.38;;;10.72;93.86
2761;BME280;15420;48.636;9.798;2022-11-15T03:17:20;96359.75;;;10.67;94.12
2761;BME280;15420;48.636;9.798;2022-11-15T03:19:51;96367.47;;;10.67;94.14
2761;BME280;15420;48.636;9.798;2022-11-15T03:22:22;96360.63;;;10.69;94.01
2761;BME280;15420;48.636;9.798;2022-11-15T03:24:57;96364.06;;;10.68;93.71
2761;BME280;15420;48.636;9.798;2022-11-15T03:27:27;96359.69;;;10.63;93.36
2761;BME280;15420;48.636;9.798;2022-11-15T03:30:02;96359.69;;;10.63;93.16
2761;BME280;15420;48.636;9.798;2022-11-15T03:32:31;96367.38;;;10.60;93.36
2761;BME280;15420;48.636;9.798;2022-11-15T03:35:21;96358.78;;;10.59;93.39
2761;BME280;15420;48.636;9.798;2022-11-15T03:40:41;96357.88;;;10.57;93.84
2761;BME280;15420;48.636;9.798;2022-11-15T03:45:50;96364.78;;;10.60;93.62
2761;BME280;15420;48.636;9.798;2022-11-15T03:48:30;96353.66;;;10.61;93.88
2761;BME280;15420;48.636;9.798;2022-11-15T03:51:02;96352.78;;;10.60;93.71
2761;BME280;15420;48.636;9.798;2022-11-15T03:53:28;96357.91;;;10.59;93.97
2761;BME280;15420;48.636;9.798;2022-11-15T03:55:56;96351.88;;;10.58;93.63
2761;BME280;15420;48.636;9.798;2022-11-15T03:58:25;96350.19;;;10.59;93.78
2761;BME280;15420;48.636;9.798;2022-11-15T04:00:51;96345.84;;;10.56;93.46
2761;BME280;15420;48.636;9.798;2022-11-15T04:03:19;96342.44;;;10.57;93.82
2761;BME280;15420;48.636;9.798;2022-11-15T04:05:45;96340.69;;;10.55;93.41
2761;BME280;15420;48.636;9.798;2022-11-15T04:08:16;96341.53;;;10.54;93.59
2761;BME280;15420;48.636;9.798;2022-11-15T04:10:42;96335.53;;;10.55;93.47
2761;BME280;15420;48.636;9.798;2022-11-15T04:13:11;96341.53;;;10.55;93.07
2761;BME280;15420;48.636;9.798;2022-11-15T04:15:37;96337.25;;;10.56;93.28
2761;BME280;15420;48.636;9.798;2022-11-15T04:18:03;96331.25;;;10.55;93.20
2761;BME280;15420;48.636;9.798;2022-11-15T04:20:32;96328.66;;;10.55;93.26
2761;BME280;15420;48.636;9.798;2022-11-15T04:23:20;96334.69;;;10.57;93.17
2761;BME280;15420;48.636;9.798;2022-11-15T04:26:08;96332.13;;;10.57;93.27
2761;BME280;15420;48.636;9.798;2022-11-15T04:28:38;96332.16;;;10.59;93.19
2761;BME280;15420;48.636;9.798;2022-11-15T04:31:23;96328.75;;;10.61;92.94
2761;BME280;15420;48.636;9.798;2022-11-15T04:33:52;96330.50;;;10.64;93.41
2761;BME280;15420;48.636;9.798;2022-11-15T04:36:18;96332.25;;;10.66;92.73
2761;BME280;15420;48.636;9.798;2022-11-15T04:39:03;96327.13;;;10.69;92.97
2761;BME280;15420;48.636;9.798;2022-11-15T04:41:29;96322.00;;;10.71;92.56
2761;BME280;15420;48.636;9.798;2022-11-15T04:43:55;96330.63;;;10.74;92.73
2761;BME280;15420;48.636;9.798;2022-11-15T04:46:25;96322.06;;;10.75;92.55
2761;BME280;15420;48.636;9.798;2022-11-15T04:48:51;96328.94;;;10.76;92.25
2761;BME280;15420;48.636;9.798;2022-11-15T04:51:20;96331.53;;;10.78;92.96
2761;BME280;15420;48.636;9.798;2022-11-15T04:53:46;96327.28;;;10.81;92.50
2761;BME280;15420;48.636;9.798;2022-11-15T04:56:12;96329.03;;;10.84;92.59
2761;BME280;15420;48.636;9.798;2022-11-15T04:58:38;96332.50;;;10.86;92.77
2761;BME280;15420;48.636;9.798;2022-11-15T05:01:09;96327.34;;;10.86;92.69
2761;BME280;15420;48.636;9.798;2022-11-15T05:03:35;96331.63;;;10.86;92.97
2761;BME280;15420;48.636;9.798;2022-11-15T05:06:23;96320.47;;;10.87;93.13
2761;BME280;15420;48.636;9.798;2022-11-15T05:08:49;96324.78;;;10.88;92.92
2761;BME280;15420;48.636;9.798;2022-11-15T05:11:17;96324.81;;;10.89;92.89
2761;BME280;15420;48.636;9.798;2022-11-15T05:13:43;96319.66;;;10.89;93.28
2761;BME280;15420;48.636;9.798;2022-11-15T05:16:10;96318.81;;;10.90;93.23
2761;BME280;15420;48.636;9.798;2022-11-15T05:18:38;96323.13;;;10.91;93.05
2761;BME280;15420;48.636;9.798;2022-11-15T05:21:12;96318.81;;;10.92;93.47
2761;BME280;15420;48.636;9.798;2022-11-15T05:23:39;96322.28;;;10.94;93.68
2761;BME280;15420;48.636;9.798;2022-11-15T05:26:07;96326.59;;;10.93;93.39
2761;BME280;15420;48.636;9.798;2022-11-15T05:28:34;96321.41;;;10.92;93.53
2761;BME280;15420;48.636;9.798;2022-11-15T05:33:32;96318.81;;;10.90;93.75
2761;BME280;15420;48.636;9.798;2022-11-15T05:38:45;96315.34;;;10.87;94.13
2761;BME280;15420;48.636;9.798;2022-11-15T05:41:15;96302.41;;;10.84;93.66
2761;BME280;15420;48.636;9.798;2022-11-15T05:43:43;96310.09;;;10.79;93.83
2761;BME280;15420;48.636;9.798;2022-11-15T05:46:11;96311.78;;;10.77;94.45
2761;BME280;15420;48.636;9.798;2022-11-15T05:48:45;96304.00;;;10.72;94.25
2761;BME280;15420;48.636;9.798;2022-11-15T05:51:17;96304.78;;;10.68;93.99
2761;BME280;15420;48.636;9.798;2022-11-15T05:53:45;96303.03;;;10.64;94.70
2761;BME280;15420;48.636;9.798;2022-11-15T05:56:11;96301.22;;;10.59;95.21
2761;BME280;15420;48.636;9.798;2022-11-15T05:58:40;96298.63;;;10.57;95.16
2761;BME280;15420;48.636;9.798;2022-11-15T06:01:07;96294.31;;;10.55;95.06
2761;BME280;15420;48.636;9.798;2022-11-15T06:03:37;96295.13;;;10.51;95.39
2761;BME280;15420;48.636;9.798;2022-11-15T06:06:03;96300.19;;;10.44;95.54
2761;BME280;15420;48.636;9.798;2022-11-15T06:08:29;96291.56;;;10.41;96.11
2761;BME280;15420;48.636;9.798;2022-11-15T06:11:03;96291.56;;;10.41;95.83
2761;BME280;15420;48.636;9.798;2022-11-15T06:13:33;96285.53;;;10.37;95.84
2761;BME280;15420;48.636;9.798;2022-11-15T06:15:59;96287.22;;;10.35;96.22
2761;BME280;15420;48.636;9.798;2022-11-15T06:18:28;96285.47;;;10.33;96.11
2761;BME280;15420;48.636;9.798;2022-11-15T06:20:59;96290.56;;;10.28;96.22
2761;BME280;15420;48.636;9.798;2022-11-15T06:23:26;96288.81;;;10.26;96.54
2761;BME280;15420;48.636;9.798;2022-11-15T06:25:52;96293.03;;;10.22;96.32
2761;BME280;15420;48.636;9.798;2022-11-15T06:28:18;96295.59;;;10.21;96.34
2761;BME280;15420;48.636;9.798;2022-11-15T06:30:49;96287.00;;;10.20;96.33
2761;BME280;15420;48.636;9.798;2022-11-15T06:33:17;96289.47;;;10.15;96.59
2761;BME280;15420;48.636;9.798;2022-11-15T06:35:46;96286.03;;;10.15;96.55
2761;BME280;15420;48.636;9.798;2022-11-15T06:38:16;96289.44;;;10.12;96.79
2761;BME280;15420;48.636;9.798;2022-11-15T06:40:44;96296.28;;;10.10;96.87
2761;BME280;15420;48.636;9.798;2022-11-15T06:43:11;96292.78;;;10.07;96.73
2761;BME280;15420;48.636;9.798;2022-11-15T06:45:40;96291.88;;;10.03;96.77
2761;BME280;15420;48.636;9.798;2022-11-15T06:48:06;96298.69;;;10.00;96.80
2761;BME280;15420;48.636;9.798;2022-11-15T06:50:39;96296.09;;;9.98;96.72
2761;BME280;15420;48.636;9.798;2022-11-15T06:53:07;96295.19;;;9.96;97.06
2761;BME280;15420;48.636;9.798;2022-11-15T06:55:36;96300.31;;;9.95;97.25
2761;BME280;15420;48.636;9.798;2022-11-15T06:58:04;96297.72;;;9.93;97.38
2761;BME280;15420;48.636;9.798;2022-11-15T07:00:33;96305.44;;;9.93;97.10
2761;BME280;15420;48.636;9.798;2022-11-15T07:03:05;96305.44;;;9.93;97.44
2761;BME280;15420;48.636;9.798;2022-11-15T07:05:33;96299.41;;;9.91;97.76
2761;BME280;15420;48.636;9.798;2022-11-15T07:08:00;96295.13;;;9.92;97.87
2761;BME280;15420;48.636;9.798;2022-11-15T07:10:27;96297.72;;;9.93;97.23
2761;BME280;15420;48.636;9.798;2022-11-15T07:12:56;96302.00;;;9.93;97.68
2761;BME280;15420;48.636;9.798;2022-11-15T07:15:26;96296.84;;;9.93;97.42
2761;BME280;15420;48.636;9.798;2022-11-15T07:17:54;96295.97;;;9.91;98.04
2761;BME280;15420;48.636;9.798;2022-11-15T07:20:23;96286.53;;;9.91;97.83
2761;BME280;15420;48.636;9.798;2022-11-15T07:22:49;96294.25;;;9.91;97.55
2761;BME280;15420;48.636;9.798;2022-11-15T07:25:15;96293.41;;;9.92;97.80
2761;BME280;15420;48.636;9.798;2022-11-15T07:27:41;96294.28;;;9.93;97.44
2761;BME280;15420;48.636;9.798;2022-11-15T07:30:10;96292.56;;;9.93;97.44
2761;BME280;15420;48.636;9.798;2022-11-15T07:32:36;96292.59;;;9.95;97.21
2761;BME280;15420;48.636;9.798;2022-11-15T07:35:02;96295.16;;;9.95;97.92
2761;BME280;15420;48.636;9.798;2022-11-15T07:37:29;96289.16;;;9.94;97.78
2761;BME280;15420;48.636;9.798;2022-11-15T07:39:55;96279.72;;;9.95;97.72
2761;BME280;15420;48.636;9.798;2022-11-15T07:42:23;96277.16;;;9.95;97.37
2761;BME280;15420;48.636;9.798;2022-11-15T07:45:11;96278.00;;;9.94;98.37
2761;BME280;15420;48.636;9.798;2022-11-15T07:47:37;96278.94;;;9.99;98.04
2761;BME280;15420;48.636;9.798;2022-11-15T07:50:03;96269.53;;;10.01;98.08
2761;BME280;15420;48.636;9.798;2022-11-15T07:52:32;96277.28;;;10.04;98.01
2761;BME280;15420;48.636;9.798;2022-11-15T07:54:58;96274.78;;;10.07;97.98
2761;BME280;15420;48.636;9.798;2022-11-15T07:57:24;96261.91;;;10.07;97.66
2761;BME280;15420;48.636;9.798;2022-11-15T07:59:50;96255.09;;;10.10;97.69
2761;BME280;15420;48.636;9.798;2022-11-15T08:02:16;96237.09;;;10.13;97.36
2761;BME280;15420;48.636;9.798;2022-11-15T08:04:43;96236.31;;;10.18;97.72
2761;BME280;15420;48.636;9.798;2022-11-15T08:07:09;96236.31;;;10.18;97.32
2761;BME280;15420;48.636;9.798;2022-11-15T08:09:35;96238.97;;;10.22;97.11
2761;BME280;15420;48.636;9.798;2022-11-15T08:12:02;96232.97;;;10.23;96.95
2761;BME280;15420;48.636;9.798;2022-11-15T08:14:28;96236.47;;;10.27;97.24
2761;BME280;15420;48.636;9.798;2022-11-15T08:16:57;96237.38;;;10.30;97.07
2761;BME280;15420;48.636;9.798;2022-11-15T08:19:26;96243.41;;;10.34;96.85
2761;BME280;15420;48.636;9.798;2022-11-15T08:21:54;96236.59;;;10.36;96.99
2761;BME280;15420;48.636;9.798;2022-11-15T08:24:21;96244.34;;;10.39;97.23
2761;BME280;15420;48.636;9.798;2022-11-15T08:26:49;96230.63;;;10.41;97.02
2761;BME280;15420;48.636;9.798;2022-11-15T08:29:15;96231.50;;;10.45;97.16
2761;BME280;15420;48.636;9.798;2022-11-15T08:31:42;96239.28;;;10.49;96.92
2761;BME280;15420;48.636;9.798;2022-11-15T08:34:11;96233.31;;;10.51;97.08
2761;BME280;15420;48.636;9.798;2022-11-15T08:36:39;96239.34;;;10.54;96.87
2761;BME280;15420;48.636;9.798;2022-11-15T08:39:05;96239.44;;;10.60;96.88
2761;BME280;15420;48.636;9.798;2022-11-15T08:41:34;96235.19;;;10.65;96.87
2761;BME280;15420;48.636;9.798;2022-11-15T08:44:02;96230.06;;;10.68;96.61
2761;BME280;15420;48.636;9.798;2022-11-15T08:46:31;96214.66;;;10.71;96.14
2761;BME280;15420;48.636;9.798;2022-11-15T08:48:59;96219.88;;;10.77;95.90
2761;BME280;15420;48.636;9.798;2022-11-15T08:51:25;96209.63;;;10.84;95.97
2761;BME280;15420;48.636;9.798;2022-11-15T08:53:54;96201.13;;;10.91;95.33
2761;BME280;15420;48.636;9.798;2022-11-15T08:56:22;96181.41;;;10.97;95.76
2761;BME280;15420;48.636;9.798;2022-11-15T08:58:48;96184.94;;;11.07;95.31
2761;BME280;15420;48.636;9.798;2022-11-15T09:01:19;96180.72;;;11.15;95.61
2761;BME280;15420;48.636;9.798;2022-11-15T09:03:45;96187.72;;;11.27;94.62
2761;BME280;15420;48.636;9.798;2022-11-15T09:06:14;96186.09;;;11.38;95.30
2761;BME280;15420;48.636;9.798;2022-11-15T09:08:43;96191.31;;;11.50;94.99
2761;BME280;15420;48.636;9.798;2022-11-15T09:11:12;96181.94;;;11.64;94.33
2761;BME280;15420;48.636;9.798;2022-11-15T09:13:38;96185.53;;;11.78;94.50
2761;BME280;15420;48.636;9.798;2022-11-15T09:16:05;96183.00;;;11.91;93.71
2761;BME280;15420;48.636;9.798;2022-11-15T09:18:31;96182.25;;;12.05;93.22
2761;BME280;15420;48.636;9.798;2022-11-15T09:20:58;96178.88;;;12.20;91.97
2761;BME280;15420;48.636;9.798;2022-11-15T09:23:25;96175.50;;;12.35;92.19
2761;BME280;15420;48.636;9.798;2022-11-15T09:25:57;96174.66;;;12.50;91.92
2761;BME280;15420;48.636;9.798;2022-11-15T09:28:26;96164.38;;;12.66;90.77
2761;BME280;15420;48.636;9.798;2022-11-15T09:30:59;96166.13;;;12.80;88.58
2761;BME280;15420;48.636;9.798;2022-11-15T09:33:26;96166.16;;;12.92;89.13
2761;BME280;15420;48.636;9.798;2022-11-15T09:35:53;96171.34;;;13.04;88.50
2761;BME280;15420;48.636;9.798;2022-11-15T09:38:19;96170.50;;;13.13;88.18
2761;BME280;15420;48.636;9.798;2022-11-15T09:40:58;96160.19;;;13.23;86.51
2761;BME280;15420;48.636;9.798;2022-11-15T09:48:57;96156.69;;;13.53;86.65
2761;BME280;15420;48.636;9.798;2022-11-15T09:51:34;96156.69;;;13.64;85.58
2761;BME280;15420;48.636;9.798;2022-11-15T09:56:40;96143.72;;;13.81;85.71
2761;BME280;15420;48.636;9.798;2022-11-15T09:59:39;96147.16;;;13.90;84.13
2761;BME280;15420;48.636;9.798;2022-11-15T10:04:38;96140.19;;;14.06;83.09
2761;BME280;15420;48.636;9.798;2022-11-15T10:12:09;96129.75;;;14.32;81.79
2761;BME280;15420;48.636;9.798;2022-11-15T10:14:38;96128.00;;;14.38;81.02
2761;BME280;15420;48.636;9.798;2022-11-15T10:17:20;96116.75;;;14.49;80.21
2761;BME280;15420;48.636;9.798;2022-11-15T10:22:41;96115.78;;;14.60;78.63
2761;BME280;15420;48.636;9.798;2022-11-15T10:27:58;96120.00;;;14.77;75.39
2761;BME280;15420;48.636;9.798;2022-11-15T10:30:35;96126.03;;;14.83;74.65
2761;BME280;15420;48.636;9.798;2022-11-15T10:33:17;96125.09;;;14.90;74.03
2761;BME280;15420;48.636;9.798;2022-11-15T10:35:46;96120.75;;;14.95;73.54
2761;BME280;15420;48.636;9.798;2022-11-15T10:38:12;96116.38;;;15.02;73.20
2761;BME280;15420;48.636;9.798;2022-11-15T10:40:40;96113.75;;;15.07;72.55
2761;BME280;15420;48.636;9.798;2022-11-15T10:45:40;96124.03;;;15.19;71.88
2761;BME280;15420;48.636;9.798;2022-11-15T10:50:42;96110.13;;;15.29;69.67
2761;BME280;15420;48.636;9.798;2022-11-15T10:53:39;96110.03;;;15.38;69.43
2761;BME280;15420;48.636;9.798;2022-11-15T10:56:12;96107.41;;;15.43;68.39
2761;BME280;15420;48.636;9.798;2022-11-15T10:58:51;96104.72;;;15.52;68.12
2761;BME280;15420;48.636;9.798;2022-11-15T11:01:26;96102.97;;;15.58;68.58
2761;BME280;15420;48.636;9.798;2022-11-15T11:04:04;96103.72;;;15.66;67.92
2761;BME280;15420;48.636;9.798;2022-11-15T11:06:49;96088.94;;;15.73;66.20
2761;BME280;15420;48.636;9.798;2022-11-15T11:12:01;96078.38;;;15.87;64.92
2761;BME280;15420;48.636;9.798;2022-11-15T11:14:31;96077.44;;;15.94;63.94
2761;BME280;15420;48.636;9.798;2022-11-15T11:17:16;96072.97;;;16.05;63.41
2761;BME280;15420;48.636;9.798;2022-11-15T11:28:29;96060.41;;;16.41;61.35
2761;BME280;15420;48.636;9.798;2022-11-15T11:34:28;96057.66;;;16.50;58.92
2761;BME280;15420;48.636;9.798;2022-11-15T11:36:51;96050.56;;;16.61;58.43
2761;BME280;15420;48.636;9.798;2022-11-15T11:39:46;96048.78;;;16.66;58.92
2761;BME280;15420;48.636;9.798;2022-11-15T11:47:39;96052.91;;;16.79;56.55
2761;BME280;15420;48.636;9.798;2022-11-15T11:55:37;96061.22;;;17.03;57.17
2761;BME280;15420;48.636;9.798;2022-11-15T11:58:26;96059.44;;;17.06;58.42
2761;BME280;15420;48.636;9.798;2022-11-15T12:03:49;96055.84;;;17.13;57.93
2761;BME280;15420;48.636;9.798;2022-11-15T12:12:16;96041.72;;;17.26;57.77
2761;BME280;15420;48.636;9.798;2022-11-15T12:16:58;96041.69;;;17.29;57.99
2761;BME280;15420;48.636;9.798;2022-11-15T12:19:28;96041.72;;;17.28;57.52
2761;BME280;15420;48.636;9.798;2022-11-15T12:22:21;96035.56;;;17.32;58.05
2761;BME280;15420;48.636;9.798;2022-11-15T12:24:56;96029.53;;;17.30;58.34
2761;BME280;15420;48.636;9.798;2022-11-15T12:30:16;96021.72;;;17.30;58.50
2761;BME280;15420;48.636;9.798;2022-11-15T12:33:01;96021.63;;;17.35;58.38
2761;BME280;15420;48.636;9.798;2022-11-15T12:35:42;96017.22;;;17.38;57.80
2761;BME280;15420;48.636;9.798;2022-11-15T12:38:12;96020.66;;;17.40;58.39
2761;BME280;15420;48.636;9.798;2022-11-15T12:41:17;96004.97;;;17.43;58.32
2761;BME280;15420;48.636;9.798;2022-11-15T12:43:44;96000.66;;;17.42;58.82
2761;BME280;15420;48.636;9.798;2022-11-15T12:49:41;96002.25;;;17.49;58.84
2761;BME280;15420;48.636;9.798;2022-11-15T13:02:21;95995.44;;;17.42;58.42
2761;BME280;15420;48.636;9.798;2022-11-15T13:04:49;95994.56;;;17.42;57.36
2761;BME280;15420;48.636;9.798;2022-11-15T13:18:39;95986.69;;;17.46;58.23
2761;BME280;15420;48.636;9.798;2022-11-15T13:21:22;95992.81;;;17.44;59.52
2761;BME280;15420;48.636;9.798;2022-11-15T13:24:13;95985.91;;;17.41;58.60
2761;BME280;15420;48.636;9.798;2022-11-15T13:26:40;95989.44;;;17.39;58.19
2761;BME280;15420;48.636;9.798;2022-11-15T13:29:18;95982.44;;;17.41;58.33
2761;BME280;15420;48.636;9.798;2022-11-15T13:31:46;95987.72;;;17.38;57.96
2761;BME280;15420;48.636;9.798;2022-11-15T13:36:50;95980.78;;;17.37;57.91
2761;BME280;15420;48.636;9.798;2022-11-15T13:39:33;95972.09;;;17.38;57.83
2761;BME280;15420;48.636;9.798;2022-11-15T13:42:00;95976.50;;;17.34;59.03
2761;BME280;15420;48.636;9.798;2022-11-15T13:44:31;95959.19;;;17.31;58.51
2761;BME280;15420;48.636;9.798;2022-11-15T13:47:15;95960.06;;;17.30;58.91
2761;BME280;15420;48.636;9.798;2022-11-15T13:49:43;95951.44;;;17.27;58.06
2761;BME280;15420;48.636;9.798;2022-11-15T13:52:13;95955.78;;;17.28;58.36
2761;BME280;15420;48.636;9.798;2022-11-15T13:55:10;95941.00;;;17.28;57.69
2761;BME280;15420;48.636;9.798;2022-11-15T13:57:50;95933.19;;;17.28;58.65
2761;BME280;15420;48.636;9.798;2022-11-15T14:00:33;95941.00;;;17.28;57.69
2761;BME280;15420;48.636;9.798;2022-11-15T14:03:20;95924.59;;;17.25;58.37
2761;BME280;15420;48.636;9.798;2022-11-15T14:06:08;95935.91;;;17.22;57.68
2761;BME280;15420;48.636;9.798;2022-11-15T14:08:58;95928.16;;;17.19;56.96
2761;BME280;15420;48.636;9.798;2022-11-15T14:11:27;95918.66;;;17.17;57.23
2761;BME280;15420;48.636;9.798;2022-11-15T14:14:11;95917.84;;;17.15;57.97
2761;BME280;15420;48.636;9.798;2022-11-15T14:19:09;95912.75;;;17.09;58.43
2761;BME280;15420;48.636;9.798;2022-11-15T14:21:36;95905.81;;;17.08;59.07
2761;BME280;15420;48.636;9.798;2022-11-15T14:24:18;95913.59;;;17.09;60.13
2761;BME280;15420;48.636;9.798;2022-11-15T14:26:45;95907.59;;;17.06;59.87
2761;BME280;15420;48.636;9.798;2022-11-15T14:29:30;95901.50;;;17.07;61.39
2761;BME280;15420;48.636;9.798;2022-11-15T14:32:44;95895.50;;;17.03;61.55
2761;BME280;15420;48.636;9.798;2022-11-15T14:35:15;95892.09;;;16.99;61.20
2761;BME280;15420;48.636;9.798;2022-11-15T14:37:42;95887.78;;;16.98;61.29
2761;BME280;15420;48.636;9.798;2022-11-15T14:40:14;95887.78;;;16.98;62.39
2761;BME280;15420;48.636;9.798;2022-11-15T14:42:41;95875.69;;;16.94;61.80
2761;BME280;15420;48.636;9.798;2022-11-15T14:45:18;95873.97;;;16.93;61.41
2761;BME280;15420;48.636;9.798;2022-11-15T14:47:44;95872.31;;;16.89;63.34
2761;BME280;15420;48.636;9.798;2022-11-15T14:50:12;95876.75;;;16.84;62.55
2761;BME280;15420;48.636;9.798;2022-11-15T14:52:41;95875.94;;;16.81;63.70
2761;BME280;15420;48.636;9.798;2022-11-15T14:55:19;95880.31;;;16.79;63.77
2761;BME280;15420;48.636;9.798;2022-11-15T14:57:46;95875.22;;;16.73;64.08
2761;BME280;15420;48.636;9.798;2022-11-15T15:00:13;95877.84;;;16.71;63.20
2761;BME280;15420;48.636;9.798;2022-11-15T15:02:41;95871.88;;;16.66;63.42
2761;BME280;15420;48.636;9.798;2022-11-15T15:07:46;95872.91;;;16.57;63.52
2761;BME280;15420;48.636;9.798;2022-11-15T15:10:15;95874.69;;;16.54;64.82
2761;BME280;15420;48.636;9.798;2022-11-15T15:12:44;95872.13;;;16.51;66.53
2761;BME280;15420;48.636;9.798;2022-11-15T15:15:20;95872.25;;;16.45;66.08
2761;BME280;15420;48.636;9.798;2022-11-15T15:17:49;95871.44;;;16.41;67.72
2761;BME280;15420;48.636;9.798;2022-11-15T15:20:16;95863.63;;;16.41;67.79
2761;BME280;15420;48.636;9.798;2022-11-15T15:22:45;95867.16;;;16.37;68.94
2761;BME280;15420;48.636;9.798;2022-11-15T15:25:21;95856.78;;;16.35;68.47
2761;BME280;15420;48.636;9.798;2022-11-15T15:27:47;95860.38;;;16.28;70.25
2761;BME280;15420;48.636;9.798;2022-11-15T15:30:16;95857.81;;;16.27;70.95
2761;BME280;15420;48.636;9.798;2022-11-15T15:32:42;95861.34;;;16.21;70.72
2761;BME280;15420;48.636;9.798;2022-11-15T15:35:12;95858.81;;;16.18;72.04
2761;BME280;15420;48.636;9.798;2022-11-15T15:37:38;95839.81;;;16.13;72.44
2761;BME280;15420;48.636;9.798;2022-11-15T15:40:12;95855.47;;;16.10;71.77
2761;BME280;15420;48.636;9.798;2022-11-15T15:42:41;95859.84;;;16.07;73.10
2761;BME280;15420;48.636;9.798;2022-11-15T15:45:08;95838.28;;;16.01;71.97
2761;BME280;15420;48.636;9.798;2022-11-15T15:47:35;95845.25;;;15.98;72.25